Terminal Aerodrome Forecast
Issued by NWS Houston/Galveston, TX

Home | Current Version | Previous Version | Text Only | Print | Product List | Glossary On
Versions: 1 2 3 4 5 6 7 8 9 10 11 12 13 14 15 16 17 18 19 20 21 22 23 24 25 26 27 28 29 30 31 32 33 34 35 36 37 38 39 40 41 42 43 44 45 46 47 48 49 50
000
FTUS44 KHGX 220554 CCA
TAFCLL
TAF COR
KCLL 220554Z 2206/2306 16011KT P6SM FEW007 BKN025
     FM221000 19009KT 4SM BR OVC007 WS020/23045KT
     FM221500 22013KT P6SM FEW007 SCT015 BKN250
     FM221800 26013G23KT P6SM BKN250
     FM230200 33006KT P6SM BKN150=

USA.gov is the U.S. government's official web portal to all federal, state and local government web resources and services.